createdAt,value
2017-06-25T00:00:51.519Z,0
2017-06-25T00:01:51.511Z,0
2017-06-25T00:02:51.505Z,0
2017-06-25T00:03:51.506Z,0
2017-06-25T00:04:51.503Z,0
2017-06-25T00:05:51.503Z,0
2017-06-25T00:06:51.497Z,0
2017-06-25T00:07:51.497Z,0
2017-06-25T00:08:51.492Z,0
2017-06-25T00:09:51.188Z,0
2017-06-25T00:10:51.488Z,0
2017-06-25T00:11:51.487Z,0
2017-06-25T00:12:51.494Z,0
2017-06-25T00:13:51.485Z,0
2017-06-25T00:14:51.478Z,0
2017-06-25T00:15:51.476Z,0
2017-06-25T00:16:51.473Z,0
2017-06-25T00:17:51.473Z,0
2017-06-25T00:18:50.865Z,0
2017-06-25T00:19:51.161Z,0
2017-06-25T00:20:51.462Z,0
2017-06-25T00:21:51.158Z,0
2017-06-25T00:22:51.460Z,0
2017-06-25T00:23:51.153Z,0
2017-06-25T00:24:51.447Z,0
2017-06-25T00:25:51.452Z,0
2017-06-25T00:26:51.448Z,0
2017-06-25T00:27:51.447Z,0
2017-06-25T00:28:51.439Z,0
2017-06-25T00:29:51.448Z,0
2017-06-25T00:30:51.440Z,0
2017-06-25T00:31:51.437Z,0
2017-06-25T00:32:51.435Z,0
2017-06-25T00:33:51.432Z,0
2017-06-25T00:34:51.425Z,0
2017-06-25T00:35:51.424Z,0
2017-06-25T00:36:51.424Z,0
2017-06-25T00:37:51.417Z,0
2017-06-25T00:38:51.414Z,0
2017-06-25T00:39:51.412Z,0
2017-06-25T00:40:51.414Z,0
2017-06-25T00:41:51.412Z,0
2017-06-25T00:42:51.407Z,0
2017-06-25T00:43:51.407Z,0
2017-06-25T00:44:51.406Z,0
2017-06-25T00:45:51.400Z,0
2017-06-25T00:46:51.393Z,0
2017-06-25T00:47:51.390Z,0
2017-06-25T00:48:51.088Z,0
2017-06-25T00:49:51.082Z,0
2017-06-25T00:50:51.386Z,0
2017-06-25T00:51:51.385Z,0
2017-06-25T00:52:51.377Z,0
2017-06-25T00:53:51.074Z,0
2017-06-25T00:54:51.070Z,0
2017-06-25T00:55:51.372Z,0
2017-06-25T00:56:51.365Z,0
2017-06-25T00:57:51.367Z,0
2017-06-25T00:58:51.362Z,0
2017-06-25T00:59:51.360Z,0
2017-06-25T01:00:51.359Z,0
2017-06-25T01:01:51.353Z,0
2017-06-25T01:02:51.057Z,0
2017-06-25T01:03:51.348Z,0
2017-06-25T01:04:51.349Z,0
2017-06-25T01:05:51.346Z,0
2017-06-25T01:06:51.341Z,0
2017-06-25T01:07:51.338Z,0
2017-06-25T01:08:51.031Z,0
2017-06-25T01:09:51.028Z,0
2017-06-25T01:10:51.332Z,0
2017-06-25T01:11:51.335Z,0
2017-06-25T01:12:51.329Z,0
2017-06-25T01:13:51.324Z,0
2017-06-25T01:14:51.325Z,0
2017-06-25T01:15:51.315Z,0
2017-06-25T01:16:51.318Z,0
2017-06-25T01:17:51.342Z,0
2017-06-25T01:18:51.007Z,0
2017-06-25T01:19:51.308Z,0
2017-06-25T01:20:51.305Z,0
2017-06-25T01:21:51.311Z,0
2017-06-25T01:22:51.307Z,0
2017-06-25T01:23:51.298Z,0
2017-06-25T01:24:51.327Z,0
2017-06-25T01:25:51.293Z,0
2017-06-25T01:26:51.296Z,0
2017-06-25T01:27:51.317Z,0
2017-06-25T01:28:50.985Z,0
2017-06-25T01:29:51.287Z,0
2017-06-25T01:30:51.280Z,0
2017-06-25T01:31:51.281Z,0
2017-06-25T01:32:51.278Z,0
2017-06-25T01:33:51.276Z,0
2017-06-25T01:34:51.271Z,0
2017-06-25T01:35:51.267Z,0
2017-06-25T01:36:51.266Z,0
2017-06-25T01:37:51.266Z,0
2017-06-25T01:38:51.265Z,0
2017-06-25T01:39:51.264Z,0
2017-06-25T01:40:51.256Z,0
2017-06-25T01:41:50.954Z,0
2017-06-25T01:42:51.251Z,0
2017-06-25T01:43:51.254Z,0
2017-06-25T01:44:51.251Z,0
2017-06-25T01:45:51.244Z,0
2017-06-25T01:46:50.939Z,0
2017-06-25T01:47:51.241Z,0
2017-06-25T01:48:51.242Z,0
2017-06-25T01:49:51.232Z,0
2017-06-25T01:50:51.228Z,0
2017-06-25T01:51:51.227Z,0
2017-06-25T01:52:51.227Z,0
2017-06-25T01:53:51.222Z,0
2017-06-25T01:54:51.222Z,0
2017-06-25T01:55:51.221Z,0
2017-06-25T01:56:51.246Z,0
2017-06-25T01:57:51.209Z,0
2017-06-25T01:58:50.910Z,0
2017-06-25T01:59:51.212Z,4
2017-06-25T02:00:50.907Z,4
2017-06-25T02:01:51.205Z,0
2017-06-25T02:02:51.201Z,4
2017-06-25T02:03:51.196Z,4
2017-06-25T02:04:51.216Z,0
2017-06-25T02:05:51.191Z,4
2017-06-25T02:06:51.195Z,4
2017-06-25T02:07:51.192Z,4
2017-06-25T02:08:51.213Z,4
2017-06-25T02:09:51.182Z,4
2017-06-25T02:10:51.181Z,8
2017-06-25T02:11:51.176Z,8
2017-06-25T02:12:51.176Z,8
2017-06-25T02:13:51.171Z,8
2017-06-25T02:14:51.171Z,8
2017-06-25T02:15:51.174Z,8
2017-06-25T02:16:51.164Z,8
2017-06-25T02:17:51.167Z,8
2017-06-25T02:18:51.159Z,8
2017-06-25T02:19:51.191Z,8
2017-06-25T02:20:51.156Z,12
2017-06-25T02:21:51.156Z,8
2017-06-25T02:22:51.149Z,12
2017-06-25T02:23:51.148Z,16
2017-06-25T02:24:51.144Z,16
2017-06-25T02:25:51.139Z,20
2017-06-25T02:26:51.139Z,24
2017-06-25T02:27:50.860Z,24
2017-06-25T02:28:51.139Z,20
2017-06-25T02:29:50.834Z,28
2017-06-25T02:30:51.130Z,32
2017-06-25T02:31:51.129Z,40
2017-06-25T02:32:51.129Z,44
2017-06-25T02:33:51.124Z,44
2017-06-25T02:34:51.117Z,44
2017-06-25T02:35:50.819Z,48
2017-06-25T02:36:50.809Z,48
2017-06-25T02:37:51.115Z,44
2017-06-25T02:38:51.106Z,44
2017-06-25T02:39:51.108Z,40
2017-06-25T02:40:51.102Z,48
2017-06-25T02:41:51.103Z,52
2017-06-25T02:42:51.097Z,56
2017-06-25T02:43:50.496Z,52
2017-06-25T02:44:51.094Z,56
2017-06-25T02:45:51.093Z,60
2017-06-25T02:46:51.091Z,72
2017-06-25T02:47:51.110Z,80
2017-06-25T02:48:50.779Z,96
2017-06-25T02:49:51.088Z,132
2017-06-25T02:50:51.103Z,132
2017-06-25T02:51:51.076Z,144
2017-06-25T02:52:51.080Z,164
2017-06-25T02:53:51.101Z,172
2017-06-25T02:54:51.066Z,176
2017-06-25T02:55:51.067Z,184
2017-06-25T02:56:51.069Z,188
2017-06-25T02:57:51.064Z,204
2017-06-25T02:58:51.059Z,200
2017-06-25T02:59:51.051Z,192
2017-06-25T03:00:51.055Z,184
2017-06-25T03:01:51.052Z,204
2017-06-25T03:02:51.055Z,244
2017-06-25T03:03:51.050Z,248
2017-06-25T03:04:51.042Z,228
2017-06-25T03:05:50.745Z,240
2017-06-25T03:06:50.733Z,264
2017-06-25T03:07:51.034Z,304
2017-06-25T03:08:51.032Z,308
2017-06-25T03:09:51.030Z,280
2017-06-25T03:10:51.029Z,276
2017-06-25T03:11:50.725Z,288
2017-06-25T03:12:51.021Z,312
2017-06-25T03:13:51.022Z,316
2017-06-25T03:14:51.017Z,308
2017-06-25T03:15:51.015Z,352
2017-06-25T03:16:51.015Z,376
2017-06-25T03:17:51.011Z,360
2017-06-25T03:18:50.704Z,340
2017-06-25T03:19:50.706Z,352
2017-06-25T03:20:51.010Z,356
2017-06-25T03:21:51.004Z,364
2017-06-25T03:22:50.996Z,400
2017-06-25T03:23:50.993Z,408
2017-06-25T03:24:50.994Z,404
2017-06-25T03:25:50.988Z,404
2017-06-25T03:26:50.988Z,356
2017-06-25T03:27:51.015Z,296
2017-06-25T03:28:50.980Z,336
2017-06-25T03:29:50.982Z,348
2017-06-25T03:30:50.977Z,368
2017-06-25T03:31:50.972Z,392
2017-06-25T03:32:50.969Z,532
2017-06-25T03:33:50.968Z,700
2017-06-25T03:34:50.967Z,1000
2017-06-25T03:35:50.963Z,1184
2017-06-25T03:36:50.959Z,1352
2017-06-25T03:37:50.981Z,1328
2017-06-25T03:38:50.957Z,1320
2017-06-25T03:39:50.652Z,1240
2017-06-25T03:40:50.955Z,968
2017-06-25T03:41:50.948Z,844
2017-06-25T03:42:50.955Z,832
2017-06-25T03:43:50.639Z,896
2017-06-25T03:44:50.942Z,1004
2017-06-25T03:45:50.938Z,1112
2017-06-25T03:46:50.937Z,1132
2017-06-25T03:47:50.932Z,1024
2017-06-25T03:48:50.954Z,848
2017-06-25T03:49:50.930Z,796
2017-06-25T03:50:50.619Z,964
2017-06-25T03:51:50.923Z,1580
2017-06-25T03:52:50.927Z,2484
2017-06-25T03:53:50.921Z,2740
2017-06-25T03:54:50.916Z,2412
2017-06-25T03:55:50.913Z,2312
2017-06-25T03:56:50.910Z,1996
2017-06-25T03:57:50.909Z,1752
2017-06-25T03:58:50.905Z,1572
2017-06-25T03:59:50.605Z,1536
2017-06-25T04:00:50.594Z,1580
2017-06-25T04:01:50.895Z,1556
2017-06-25T04:02:50.895Z,1612
2017-06-25T04:03:50.890Z,1748
2017-06-25T04:04:50.892Z,1352
2017-06-25T04:05:50.887Z,1700
2017-06-25T04:06:50.884Z,2256
2017-06-25T04:07:50.879Z,2456
2017-06-25T04:08:50.883Z,2272
2017-06-25T04:09:50.879Z,1892
2017-06-25T04:10:50.876Z,1732
2017-06-25T04:11:50.869Z,1920
2017-06-25T04:12:50.563Z,2424
2017-06-25T04:13:50.864Z,2388
2017-06-25T04:14:50.269Z,2860
2017-06-25T04:15:50.864Z,2972
2017-06-25T04:16:50.855Z,2836
2017-06-25T04:17:50.855Z,2704
2017-06-25T04:18:50.850Z,2632
2017-06-25T04:19:50.846Z,2268
2017-06-25T04:20:50.849Z,1968
2017-06-25T04:21:50.567Z,1856
2017-06-25T04:22:50.840Z,2044
2017-06-25T04:23:50.838Z,2080
2017-06-25T04:24:50.837Z,2088
2017-06-25T04:25:50.834Z,2072
2017-06-25T04:26:50.837Z,1988
2017-06-25T04:27:50.829Z,2052
2017-06-25T04:28:50.825Z,2296
2017-06-25T04:29:50.822Z,1876
2017-06-25T04:30:50.819Z,1676
2017-06-25T04:31:50.819Z,2200
2017-06-25T04:32:50.813Z,2748
2017-06-25T04:33:50.810Z,3084
2017-06-25T04:34:50.814Z,3212
2017-06-25T04:35:50.810Z,3156
2017-06-25T04:36:50.808Z,3316
2017-06-25T04:37:50.501Z,3560
2017-06-25T04:38:50.801Z,4240
2017-06-25T04:39:50.496Z,4920
2017-06-25T04:40:50.797Z,4280
2017-06-25T04:41:50.795Z,4060
2017-06-25T04:42:50.790Z,4020
2017-06-25T04:43:50.798Z,4148
2017-06-25T04:44:50.786Z,4524
2017-06-25T04:45:50.796Z,4160
2017-06-25T04:46:50.478Z,4288
2017-06-25T04:47:50.775Z,5380
2017-06-25T04:48:50.778Z,6944
2017-06-25T04:49:50.775Z,8632
2017-06-25T04:50:50.779Z,8072
2017-06-25T04:51:50.776Z,7596
2017-06-25T04:52:50.768Z,8056
2017-06-25T04:53:50.765Z,8220
2017-06-25T04:54:50.766Z,8384
2017-06-25T04:55:50.761Z,8824
2017-06-25T04:56:50.762Z,9284
2017-06-25T04:57:50.765Z,8836
2017-06-25T04:58:50.753Z,8012
2017-06-25T04:59:50.449Z,7724
2017-06-25T05:00:50.758Z,7688
2017-06-25T05:01:50.751Z,8216
2017-06-25T05:02:50.756Z,9016
2017-06-25T05:03:50.750Z,9548
2017-06-25T05:04:50.747Z,9572
2017-06-25T05:05:50.745Z,8936
2017-06-25T05:06:50.746Z,7716
2017-06-25T05:07:50.741Z,7240
2017-06-25T05:08:50.742Z,6856
2017-06-25T05:09:50.740Z,6088
2017-06-25T05:10:50.744Z,5980
2017-06-25T05:11:50.738Z,6116
2017-06-25T05:12:50.737Z,6200
2017-06-25T05:13:50.738Z,6668
2017-06-25T05:14:50.742Z,7228
2017-06-25T05:15:50.732Z,7592
2017-06-25T05:16:50.733Z,7484
2017-06-25T05:17:50.730Z,7844
2017-06-25T05:18:50.733Z,8356
2017-06-25T05:19:50.730Z,7280
2017-06-25T05:20:50.731Z,6820
2017-06-25T05:21:50.736Z,7724
2017-06-25T05:22:50.430Z,9284
2017-06-25T05:23:50.735Z,10960
2017-06-25T05:24:50.425Z,14852
2017-06-25T05:25:50.730Z,18080
2017-06-25T05:26:50.726Z,17440
2017-06-25T05:27:50.727Z,17504
2017-06-25T05:28:50.727Z,14848
2017-06-25T05:29:50.725Z,12596
2017-06-25T05:30:50.426Z,11512
2017-06-25T05:31:50.737Z,10488
2017-06-25T05:32:50.725Z,9944
2017-06-25T05:33:50.729Z,11836
2017-06-25T05:34:50.725Z,14936
2017-06-25T05:35:50.751Z,16064
2017-06-25T05:36:50.734Z,16000
2017-06-25T05:37:50.728Z,18528
2017-06-25T05:38:50.727Z,19072
2017-06-25T05:39:50.737Z,22944
2017-06-25T05:40:50.424Z,26080
2017-06-25T05:41:50.732Z,32224
2017-06-25T05:42:50.735Z,22720
2017-06-25T05:43:50.733Z,18112
2017-06-25T05:44:50.732Z,17280
2017-06-25T05:45:50.734Z,15508
2017-06-25T05:46:50.739Z,13460
2017-06-25T05:47:50.739Z,10504
2017-06-25T05:48:50.741Z,9268
2017-06-25T05:49:50.743Z,9152
2017-06-25T05:50:50.749Z,10176
2017-06-25T05:51:50.752Z,11772
2017-06-25T05:52:50.460Z,11620
2017-06-25T05:53:50.759Z,11520
2017-06-25T05:54:50.757Z,13396
2017-06-25T05:55:50.758Z,13584
2017-06-25T05:56:50.758Z,13180
2017-06-25T05:57:50.161Z,12812
2017-06-25T05:58:50.767Z,13600
2017-06-25T05:59:50.773Z,13656
2017-06-25T06:00:50.774Z,12136
2017-06-25T06:01:50.781Z,12760
2017-06-25T06:02:50.472Z,14608
2017-06-25T06:03:50.782Z,15568
2017-06-25T06:04:50.784Z,16448
2017-06-25T06:05:50.783Z,16864
2017-06-25T06:06:50.791Z,22976
2017-06-25T06:07:50.520Z,18496
2017-06-25T06:08:50.793Z,22880
2017-06-25T06:09:50.498Z,25600
2017-06-25T06:10:50.797Z,26752
2017-06-25T06:11:50.803Z,26112
2017-06-25T06:12:50.501Z,29760
2017-06-25T06:13:50.512Z,32768
2017-06-25T06:14:50.509Z,25664
2017-06-25T06:15:50.815Z,19552
2017-06-25T06:16:50.819Z,19488
2017-06-25T06:17:50.818Z,22400
2017-06-25T06:18:50.826Z,21696
2017-06-25T06:19:50.833Z,19712
2017-06-25T06:20:50.839Z,21344
2017-06-25T06:21:50.844Z,19424
2017-06-25T06:22:50.539Z,19232
2017-06-25T06:23:50.844Z,19456
2017-06-25T06:24:50.855Z,17600
2017-06-25T06:25:50.554Z,14716
2017-06-25T06:26:50.864Z,12736
2017-06-25T06:27:50.867Z,11540
2017-06-25T06:28:50.871Z,11360
2017-06-25T06:29:50.878Z,10976
2017-06-25T06:30:50.878Z,10728
2017-06-25T06:31:50.888Z,10472
2017-06-25T06:32:50.892Z,10380
2017-06-25T06:33:50.895Z,10612
2017-06-25T06:34:50.898Z,9732
2017-06-25T06:35:50.904Z,9020
2017-06-25T06:36:50.909Z,10000
2017-06-25T06:37:50.942Z,10024
2017-06-25T06:38:50.919Z,10224
2017-06-25T06:39:50.923Z,10584
2017-06-25T06:40:50.926Z,9616
2017-06-25T06:41:50.932Z,8648
2017-06-25T06:42:50.937Z,8792
2017-06-25T06:43:50.938Z,7500
2017-06-25T06:44:50.945Z,6880
2017-06-25T06:45:50.950Z,6404
2017-06-25T06:46:50.647Z,6520
2017-06-25T06:47:50.952Z,6684
2017-06-25T06:48:50.955Z,5968
2017-06-25T06:49:50.957Z,6000
2017-06-25T06:50:50.965Z,6008
2017-06-25T06:51:50.962Z,6460
2017-06-25T06:52:50.967Z,7252
2017-06-25T06:53:50.970Z,6788
2017-06-25T06:54:50.972Z,6844
2017-06-25T06:55:50.978Z,7548
2017-06-25T06:56:50.978Z,7252
2017-06-25T06:57:50.983Z,7716
2017-06-25T06:58:50.687Z,9172
2017-06-25T06:59:51.024Z,8760
2017-06-25T07:00:50.684Z,8212
2017-06-25T07:01:51.243Z,7604
2017-06-25T07:02:50.991Z,7440
2017-06-25T07:03:50.993Z,8716
2017-06-25T07:04:50.998Z,10036
2017-06-25T07:05:50.999Z,11040
2017-06-25T07:06:51.003Z,11888
2017-06-25T07:07:51.005Z,15424
2017-06-25T07:08:50.701Z,22304
2017-06-25T07:09:51.008Z,26720
2017-06-25T07:10:51.014Z,33888
2017-06-25T07:11:51.015Z,29376
2017-06-25T07:12:51.016Z,34688
2017-06-25T07:13:51.021Z,35200
2017-06-25T07:14:50.747Z,34880
2017-06-25T07:15:51.022Z,35136
2017-06-25T07:16:51.030Z,24640
2017-06-25T07:17:51.032Z,17280
2017-06-25T07:18:50.733Z,14056
2017-06-25T07:19:51.036Z,13332
2017-06-25T07:20:51.045Z,12236
2017-06-25T07:21:51.048Z,13232
2017-06-25T07:22:50.749Z,14072
2017-06-25T07:23:50.748Z,14604
2017-06-25T07:24:50.751Z,17344
2017-06-25T07:25:50.755Z,20480
2017-06-25T07:26:51.066Z,20992
2017-06-25T07:27:51.072Z,17600
2017-06-25T07:28:51.076Z,13612
2017-06-25T07:29:51.078Z,12564
2017-06-25T07:30:51.081Z,10340
2017-06-25T07:31:51.086Z,11048
2017-06-25T07:32:51.089Z,10304
2017-06-25T07:33:50.787Z,9036
2017-06-25T07:34:51.100Z,10540
2017-06-25T07:35:51.107Z,10080
2017-06-25T07:36:50.805Z,10272
2017-06-25T07:37:51.126Z,9760
2017-06-25T07:38:51.114Z,10364
2017-06-25T07:39:51.117Z,10948
2017-06-25T07:40:51.122Z,10768
2017-06-25T07:41:50.825Z,11532
2017-06-25T07:42:51.130Z,9676
2017-06-25T07:43:50.832Z,8980
2017-06-25T07:44:51.135Z,12984
2017-06-25T07:45:51.140Z,13388
2017-06-25T07:46:51.147Z,9964
2017-06-25T07:47:51.144Z,6904
2017-06-25T07:48:51.163Z,7440
2017-06-25T07:49:51.157Z,9404
2017-06-25T07:50:51.158Z,10164
2017-06-25T07:51:51.162Z,9792
2017-06-25T07:52:50.863Z,8208
2017-06-25T07:53:51.164Z,7176
2017-06-25T07:54:51.172Z,7712
2017-06-25T07:55:50.871Z,7060
2017-06-25T07:56:51.178Z,7132
2017-06-25T07:57:50.878Z,9000
2017-06-25T07:58:51.185Z,8584
2017-06-25T07:59:51.185Z,8572
2017-06-25T08:00:51.184Z,7968
2017-06-25T08:01:50.888Z,8860
2017-06-25T08:02:51.191Z,9292
2017-06-25T08:03:51.193Z,8820
2017-06-25T08:04:51.201Z,8692
2017-06-25T08:05:50.893Z,7132
2017-06-25T08:06:50.289Z,5912
2017-06-25T08:07:50.598Z,5460
2017-06-25T08:08:50.904Z,4720
2017-06-25T08:09:50.906Z,4460
2017-06-25T08:10:51.211Z,4272
2017-06-25T08:11:51.212Z,4240
2017-06-25T08:12:50.912Z,4524
2017-06-25T08:13:50.910Z,4212
2017-06-25T08:14:50.610Z,3768
2017-06-25T08:15:50.920Z,3060
2017-06-25T08:16:50.314Z,3356
2017-06-25T08:17:50.921Z,5112
2017-06-25T08:18:50.924Z,5732
2017-06-25T08:19:51.222Z,5532
2017-06-25T08:20:51.226Z,6012
2017-06-25T08:21:51.231Z,6300
2017-06-25T08:22:51.233Z,6244
2017-06-25T08:23:50.930Z,6008
2017-06-25T08:24:50.939Z,6216
2017-06-25T08:25:51.236Z,6988
2017-06-25T08:26:51.241Z,8148
2017-06-25T08:27:50.938Z,8264
2017-06-25T08:28:51.240Z,7428
2017-06-25T08:29:51.245Z,7096
2017-06-25T08:30:50.941Z,6920
2017-06-25T08:31:50.635Z,7364
2017-06-25T08:32:51.249Z,8572
2017-06-25T08:33:51.243Z,10528
2017-06-25T08:34:50.942Z,15708
2017-06-25T08:35:51.255Z,19776
2017-06-25T08:36:51.247Z,20896
2017-06-25T08:37:51.282Z,19584
2017-06-25T08:38:51.247Z,17216
2017-06-25T08:39:50.948Z,16928
2017-06-25T08:40:51.253Z,16864
2017-06-25T08:41:50.954Z,16800
2017-06-25T08:42:51.260Z,16320
2017-06-25T08:43:51.258Z,16416
2017-06-25T08:44:50.954Z,17696
2017-06-25T08:45:51.258Z,17696
2017-06-25T08:46:51.266Z,17344
2017-06-25T08:47:51.268Z,17216
2017-06-25T08:48:50.679Z,17280
2017-06-25T08:49:51.270Z,17920
2017-06-25T08:50:51.275Z,20640
2017-06-25T08:51:51.273Z,24320
2017-06-25T08:52:51.277Z,25504
2017-06-25T08:53:50.971Z,21792
2017-06-25T08:54:51.284Z,18624
2017-06-25T08:55:51.282Z,17568
2017-06-25T08:56:50.982Z,16096
2017-06-25T08:57:51.290Z,14992
2017-06-25T08:58:51.296Z,14124
2017-06-25T08:59:51.295Z,15340
2017-06-25T09:00:51.300Z,14896
2017-06-25T09:01:50.995Z,13588
2017-06-25T09:02:50.997Z,12084
2017-06-25T09:03:51.309Z,9836
2017-06-25T09:04:51.313Z,8248
2017-06-25T09:05:51.323Z,9060
2017-06-25T09:06:51.013Z,11216
2017-06-25T09:07:51.013Z,12708
2017-06-25T09:08:51.022Z,11104
2017-06-25T09:09:51.023Z,8412
2017-06-25T09:10:51.027Z,7648
2017-06-25T09:11:51.029Z,7352
2017-06-25T09:12:51.035Z,7400
2017-06-25T09:13:51.030Z,8300
2017-06-25T09:14:51.037Z,9204
2017-06-25T09:15:50.738Z,9436
2017-06-25T09:16:51.040Z,8956
2017-06-25T09:17:51.352Z,8820
2017-06-25T09:18:51.047Z,9384
2017-06-25T09:19:51.049Z,9812
2017-06-25T09:20:51.363Z,10784
2017-06-25T09:21:51.059Z,10852
2017-06-25T09:22:51.058Z,10496
2017-06-25T09:23:51.063Z,10708
2017-06-25T09:24:51.366Z,13420
2017-06-25T09:25:51.063Z,17504
2017-06-25T09:26:51.064Z,18400
2017-06-25T09:27:51.065Z,17344
2017-06-25T09:28:51.067Z,17088
2017-06-25T09:29:51.065Z,16352
2017-06-25T09:30:51.074Z,13136
2017-06-25T09:31:51.078Z,10368
2017-06-25T09:32:51.071Z,9636
2017-06-25T09:33:51.074Z,10260
2017-06-25T09:34:51.076Z,11476
2017-06-25T09:35:51.076Z,11648
2017-06-25T09:36:51.079Z,10468
2017-06-25T09:37:51.087Z,10492
2017-06-25T09:38:51.386Z,11756
2017-06-25T09:39:51.087Z,15304
2017-06-25T09:40:50.780Z,17664
2017-06-25T09:41:51.083Z,17600
2017-06-25T09:42:50.783Z,21088
2017-06-25T09:43:50.796Z,22336
2017-06-25T09:44:51.088Z,20032
2017-06-25T09:45:51.096Z,16544
2017-06-25T09:46:51.098Z,16864
2017-06-25T09:47:51.095Z,16256
2017-06-25T09:48:51.102Z,17216
2017-06-25T09:49:51.104Z,17792
2017-06-25T09:50:51.100Z,19776
2017-06-25T09:51:51.109Z,21440
2017-06-25T09:52:51.104Z,21248
2017-06-25T09:53:51.411Z,19488
2017-06-25T09:54:51.109Z,17792
2017-06-25T09:55:51.118Z,18112
2017-06-25T09:56:51.117Z,17888
2017-06-25T09:57:51.427Z,15412
2017-06-25T09:58:51.120Z,13076
2017-06-25T09:59:51.432Z,12252
2017-06-25T10:00:51.434Z,11804
2017-06-25T10:01:51.127Z,14412
2017-06-25T10:02:51.437Z,13940
2017-06-25T10:03:51.449Z,11812
2017-06-25T10:04:51.138Z,12584
2017-06-25T10:05:51.141Z,14688
2017-06-25T10:06:51.444Z,15528
2017-06-25T10:07:51.444Z,20320
2017-06-25T10:08:51.452Z,21696
2017-06-25T10:09:51.446Z,23936
2017-06-25T10:10:51.147Z,23456
2017-06-25T10:11:51.454Z,21184
2017-06-25T10:12:51.152Z,22624
2017-06-25T10:13:51.154Z,21120
2017-06-25T10:14:51.461Z,18048
2017-06-25T10:15:50.856Z,16960
2017-06-25T10:16:51.468Z,16128
2017-06-25T10:17:51.464Z,17376
2017-06-25T10:18:51.472Z,19712
2017-06-25T10:19:51.166Z,23264
2017-06-25T10:20:51.167Z,30880
2017-06-25T10:21:51.482Z,30144
2017-06-25T10:22:51.178Z,35904
2017-06-25T10:23:51.483Z,27488
2017-06-25T10:24:51.492Z,22048
2017-06-25T10:25:51.182Z,27584
2017-06-25T10:26:51.489Z,28512
2017-06-25T10:27:51.194Z,25056
2017-06-25T10:28:51.496Z,31584
2017-06-25T10:29:51.504Z,37696
2017-06-25T10:30:51.501Z,30784
2017-06-25T10:31:51.506Z,27936
2017-06-25T10:32:51.509Z,25312
2017-06-25T10:33:51.514Z,25056
2017-06-25T10:34:51.215Z,24544
2017-06-25T10:35:51.524Z,23008
2017-06-25T10:36:51.525Z,20992
2017-06-25T10:37:51.527Z,21888
2017-06-25T10:38:51.535Z,20832
2017-06-25T10:39:51.544Z,22080
2017-06-25T10:40:51.549Z,20768
2017-06-25T10:41:51.556Z,20256
2017-06-25T10:42:51.555Z,17600
2017-06-25T10:43:51.560Z,12980
2017-06-25T10:44:51.262Z,12308
2017-06-25T10:45:51.569Z,12212
2017-06-25T10:46:50.973Z,13320
2017-06-25T10:47:51.584Z,17984
2017-06-25T10:48:51.588Z,17984
2017-06-25T10:49:51.288Z,18272
2017-06-25T10:50:51.599Z,21088
2017-06-25T10:51:51.601Z,20288
2017-06-25T10:52:51.605Z,20704
2017-06-25T10:53:51.609Z,22784
2017-06-25T10:54:51.615Z,25472
2017-06-25T10:55:51.622Z,27168
2017-06-25T10:56:51.630Z,30240
2017-06-25T10:57:51.632Z,31584
2017-06-25T10:58:51.638Z,30144
2017-06-25T10:59:51.340Z,29248
2017-06-25T11:00:51.648Z,28896
2017-06-25T11:01:51.656Z,29984
2017-06-25T11:02:51.659Z,30560
2017-06-25T11:03:51.661Z,28800
2017-06-25T11:04:51.668Z,28992
2017-06-25T11:05:51.672Z,29440
2017-06-25T11:06:51.689Z,30816
2017-06-25T11:07:51.688Z,31520
2017-06-25T11:08:51.690Z,31456
2017-06-25T11:09:51.398Z,29024
2017-06-25T11:10:51.397Z,27904
2017-06-25T11:11:51.707Z,26272
2017-06-25T11:12:51.716Z,26144
2017-06-25T11:13:51.771Z,26752
2017-06-25T11:14:51.737Z,25408
2017-06-25T11:15:51.733Z,23840
2017-06-25T11:16:51.740Z,23136
2017-06-25T11:17:51.745Z,24320
2017-06-25T11:18:51.754Z,22880
2017-06-25T11:19:51.758Z,21216
2017-06-25T11:20:51.770Z,22400
2017-06-25T11:21:51.776Z,24032
2017-06-25T11:22:51.778Z,22752
2017-06-25T11:23:51.782Z,22112
2017-06-25T11:24:51.793Z,22688
2017-06-25T11:25:51.798Z,22912
2017-06-25T11:26:51.806Z,26208
2017-06-25T11:27:51.813Z,28832
2017-06-25T11:28:51.212Z,28960
2017-06-25T11:29:51.826Z,29312
2017-06-25T11:30:51.827Z,28864
2017-06-25T11:31:51.838Z,26176
2017-06-25T11:32:51.544Z,22592
2017-06-25T11:33:51.544Z,19904
2017-06-25T11:34:51.554Z,17632
2017-06-25T11:35:51.566Z,15764
2017-06-25T11:36:51.567Z,13480
2017-06-25T11:37:51.595Z,12676
2017-06-25T11:38:51.274Z,12932
2017-06-25T11:39:51.588Z,13572
2017-06-25T11:40:51.898Z,14328
2017-06-25T11:41:51.599Z,15348
2017-06-25T11:42:51.606Z,16448
2017-06-25T11:43:51.614Z,18592
2017-06-25T11:44:51.615Z,20960
2017-06-25T11:45:51.620Z,23648
2017-06-25T11:46:51.631Z,25536
2017-06-25T11:47:51.635Z,25824
2017-06-25T11:48:51.942Z,25120
2017-06-25T11:49:51.646Z,24512
2017-06-25T11:50:51.958Z,24512
2017-06-25T11:51:51.960Z,24960
2017-06-25T11:52:51.663Z,25952
2017-06-25T11:53:51.971Z,26560
2017-06-25T11:54:51.979Z,25632
2017-06-25T11:55:51.988Z,23968
2017-06-25T11:56:51.993Z,22304
2017-06-25T11:57:51.724Z,19168
2017-06-25T11:58:52.003Z,15516
2017-06-25T11:59:52.006Z,16224
2017-06-25T12:00:52.014Z,23104
2017-06-25T12:01:52.021Z,26624
2017-06-25T12:02:52.025Z,26752
2017-06-25T12:03:52.034Z,23200
2017-06-25T12:04:52.044Z,21920
2017-06-25T12:05:52.042Z,20352
2017-06-25T12:06:52.048Z,19648
2017-06-25T12:07:51.752Z,20704
2017-06-25T12:08:52.059Z,20480
2017-06-25T12:09:51.762Z,19232
2017-06-25T12:10:51.767Z,18240
2017-06-25T12:11:52.077Z,19008
2017-06-25T12:12:52.085Z,19808
2017-06-25T12:13:52.089Z,20032
2017-06-25T12:14:52.097Z,20000
2017-06-25T12:15:52.102Z,20832
2017-06-25T12:16:52.108Z,20992
2017-06-25T12:17:52.113Z,21632
2017-06-25T12:18:52.117Z,20000
2017-06-25T12:19:51.823Z,17664
2017-06-25T12:20:52.132Z,17056
2017-06-25T12:21:52.142Z,16004
2017-06-25T12:22:52.149Z,12648
2017-06-25T12:23:52.180Z,10864
2017-06-25T12:24:52.158Z,10268
2017-06-25T12:25:52.167Z,9876
2017-06-25T12:26:52.167Z,10480
2017-06-25T12:27:51.871Z,11128
2017-06-25T12:28:52.206Z,12316
2017-06-25T12:29:52.184Z,13800
2017-06-25T12:30:52.195Z,14864
2017-06-25T12:31:52.199Z,19168
2017-06-25T12:32:52.200Z,18592
2017-06-25T12:33:52.212Z,17984
2017-06-25T12:34:51.914Z,20288
2017-06-25T12:35:52.218Z,22912
2017-06-25T12:36:52.227Z,26336
2017-06-25T12:37:52.233Z,28928
2017-06-25T12:38:52.238Z,28256
2017-06-25T12:39:52.243Z,29344
2017-06-25T12:40:52.249Z,33216
2017-06-25T12:41:52.254Z,32928
2017-06-25T12:42:51.651Z,27680
2017-06-25T12:43:52.267Z,25664
2017-06-25T12:44:52.271Z,19968
2017-06-25T12:45:52.283Z,14124
2017-06-25T12:46:52.288Z,10704
2017-06-25T12:47:52.289Z,6524
2017-06-25T12:48:52.293Z,4112
2017-06-25T12:49:52.298Z,3364
2017-06-25T12:50:52.307Z,2740
2017-06-25T12:51:52.318Z,2200
2017-06-25T12:52:52.323Z,1988
2017-06-25T12:53:52.328Z,1936
2017-06-25T12:54:52.339Z,2036
2017-06-25T12:55:52.338Z,2160
2017-06-25T12:56:52.350Z,3080
2017-06-25T12:57:52.345Z,3572
2017-06-25T12:58:51.750Z,5252
2017-06-25T12:59:52.357Z,4316
2017-06-25T13:00:52.366Z,3888
2017-06-25T13:01:52.366Z,3040
2017-06-25T13:02:52.623Z,5764
2017-06-25T13:03:52.076Z,9152
2017-06-25T13:04:52.378Z,12880
2017-06-25T13:05:52.082Z,16864
2017-06-25T13:06:52.083Z,14000
2017-06-25T13:07:52.381Z,13988
2017-06-25T13:08:52.387Z,14492
2017-06-25T13:09:52.388Z,11068
2017-06-25T13:10:52.398Z,9972
2017-06-25T13:11:52.095Z,8908
2017-06-25T13:12:52.399Z,7732
2017-06-25T13:13:52.399Z,8468
2017-06-25T13:14:52.405Z,9420
2017-06-25T13:15:52.605Z,9416
2017-06-25T13:16:52.416Z,8560
2017-06-25T13:17:52.767Z,6768
2017-06-25T13:18:52.412Z,6872
2017-06-25T13:19:52.109Z,8652
2017-06-25T13:20:52.414Z,8668
2017-06-25T13:21:52.417Z,7932
2017-06-25T13:22:52.424Z,6868
2017-06-25T13:23:52.113Z,6128
2017-06-25T13:24:52.419Z,9668